Time;durP1;ratioP1;P1;durP2;ratioP2;P2;SDS_P1;SDS_P2;PMS_P1;PMS_P2;Temp;Humidity;BMP_temperature;BMP_pressure;BME280_temperature;BME280_humidity;BME280_pressure;Samples;Min_cycle;Max_cycle;Signal;HPM_P1;HPM_P2
2021/06/09 00:01:03;;;;;;;5.72;5.43;;;;;;;15.08;79.73;101789.31;5341267;26;20044;-71
2021/06/09 00:03:28;;;;;;;5.87;5.57;;;;;;;15.25;80.09;101784.88;5337729;26;20050;-71
2021/06/09 00:05:54;;;;;;;5.68;5.37;;;;;;;15.25;80.03;101790.19;5339889;26;20119;-72
2021/06/09 00:08:19;;;;;;;5.40;5.18;;;;;;;14.93;79.46;101737.25;5340725;26;20057;-72
2021/06/09 00:10:54;;;;;;;5.30;5.10;;;;;;;15.18;79.76;101776.44;5337861;26;20045;-72
2021/06/09 00:13:20;;;;;;;5.35;5.05;;;;;;;15.07;79.62;101768.22;5342491;26;20219;-72
2021/06/09 00:15:45;;;;;;;6.12;5.82;;;;;;;15.15;80.11;101785.41;5339508;26;20039;-71
2021/06/09 00:18:11;;;;;;;5.57;5.25;;;;;;;15.11;80.40;101777.69;5339672;26;20039;-72
2021/06/09 00:20:37;;;;;;;5.65;5.35;;;;;;;15.09;80.47;101783.06;5338979;26;20675;-72
2021/06/09 00:23:02;;;;;;;5.30;5.10;;;;;;;15.10;80.20;101781.28;5359404;26;20042;-71
2021/06/09 00:25:27;;;;;;;4.62;4.43;;;;;;;15.05;80.33;101784.16;5339639;26;20050;-70
2021/06/09 00:27:54;;;;;;;5.05;4.85;;;;;;;14.45;80.25;101683.41;5340655;26;20034;-72
2021/06/09 00:30:24;;;;;;;5.57;5.25;;;;;;;15.07;79.93;101784.09;5339399;26;20052;-73
2021/06/09 00:32:49;;;;;;;5.15;4.75;;;;;;;12.14;79.90;101295.25;5343825;26;20054;-73
2021/06/09 00:35:15;;;;;;;5.40;5.10;;;;;;;15.05;79.67;101788.59;5340933;26;20041;-71
2021/06/09 00:37:40;;;;;;;5.93;5.62;;;;;;;14.98;79.82;101785.44;5343636;26;20030;-71
2021/06/09 00:40:07;;;;;;;5.10;4.90;;;;;;;14.62;80.12;101733.59;5343117;26;20050;-71
2021/06/09 00:42:32;;;;;;;5.62;5.32;;;;;;;14.97;79.86;101786.37;5344158;26;20070;-71
2021/06/09 00:44:58;;;;;;;5.20;5.00;;;;;;;14.86;80.59;101784.31;5343470;26;20052;-71
2021/06/09 00:47:23;;;;;;;5.53;5.22;;;;;;;14.91;80.40;101781.41;5343079;26;20632;-71
2021/06/09 00:49:49;;;;;;;5.10;4.90;;;;;;;14.89;80.84;101781.50;5343624;26;20313;-71
2021/06/09 00:52:14;;;;;;;4.82;4.62;;;;;;;14.90;80.41;101782.34;5360862;26;20610;-73
2021/06/09 00:54:40;;;;;;;4.97;4.78;;;;;;;14.38;80.77;101703.16;5344095;26;20095;-71
2021/06/09 00:57:06;;;;;;;5.05;4.85;;;;;;;14.87;80.88;101775.44;5343984;26;20606;-71
2021/06/09 00:59:35;;;;;;;5.15;4.95;;;;;;;14.86;80.84;101770.25;5343100;26;20042;-71
2021/06/09 01:02:00;;;;;;;5.45;5.15;;;;;;;13.97;80.90;101627.78;5343794;26;20538;-71
2021/06/09 01:04:25;;;;;;;5.22;5.03;;;;;;;13.89;81.03;101616.78;5344976;26;20038;-71
2021/06/09 01:06:51;;;;;;;6.05;5.55;;;;;;;14.79;81.15;101774.97;5341489;26;20378;-71
2021/06/09 01:09:26;;;;;;;4.95;4.75;;;;;;;14.75;81.54;101769.03;5342111;26;20046;-72
2021/06/09 01:11:55;;;;;;;5.05;4.80;;;;;;;14.42;81.28;101717.91;5342007;26;20600;-72
2021/06/09 01:14:21;;;;;;;5.12;4.82;;;;;;;14.69;81.59;101776.41;5341881;26;20726;-72
2021/06/09 01:16:47;;;;;;;5.62;5.32;;;;;;;14.49;81.41;101741.31;5361417;26;20046;-73
2021/06/09 01:19:13;;;;;;;5.12;4.93;;;;;;;14.50;81.72;101747.44;5363491;26;20065;-73
2021/06/09 01:21:39;;;;;;;5.75;5.25;;;;;;;14.64;81.44;101774.00;5360541;26;20845;-72
2021/06/09 01:24:04;;;;;;;4.97;4.78;;;;;;;14.51;81.54;101750.00;5358799;26;20043;-72
2021/06/09 01:26:31;;;;;;;5.35;4.97;;;;;;;14.61;81.49;101778.59;5340980;26;20038;-73
2021/06/09 01:28:57;;;;;;;5.00;4.80;;;;;;;13.70;81.37;101627.44;5339519;26;20156;-73
2021/06/09 01:31:23;;;;;;;5.40;5.10;;;;;;;14.60;81.63;101774.25;5340653;26;20606;-72
2021/06/09 01:33:48;;;;;;;5.47;5.18;;;;;;;14.57;81.96;101769.97;5339292;26;20042;-72
2021/06/09 01:36:14;;;;;;;5.22;4.95;;;;;;;14.09;81.94;101692.31;5328393;26;20058;-73
2021/06/09 01:38:39;;;;;;;5.65;5.35;;;;;;;14.03;82.19;101687.34;5337229;26;20031;-72
2021/06/09 01:41:04;;;;;;;5.62;5.32;;;;;;;14.09;82.50;101702.84;5339441;26;20108;-71
2021/06/09 01:43:32;;;;;;;5.55;5.25;;;;;;;14.36;82.05;101742.84;5338291;26;20056;-73
2021/06/09 01:45:58;;;;;;;5.25;4.95;;;;;;;14.44;83.16;101771.50;5340361;26;20034;-72
2021/06/09 01:48:23;;;;;;;4.82;4.62;;;;;;;14.38;82.89;101763.91;5338981;26;20049;-71
2021/06/09 01:50:48;;;;;;;5.40;5.10;;;;;;;14.39;82.94;101765.59;5339515;26;20082;-72
2021/06/09 01:53:14;;;;;;;5.37;5.10;;;;;;;14.35;83.65;101768.41;5358665;26;20043;-71
2021/06/09 01:55:42;;;;;;;5.20;5.00;;;;;;;13.88;83.84;101694.25;5339796;26;20043;-70
2021/06/09 01:58:10;;;;;;;4.87;4.68;;;;;;;14.30;84.20;101770.41;5340021;26;20039;-72
2021/06/09 02:00:45;;;;;;;5.30;5.10;;;;;;;14.11;84.44;101751.16;5340579;26;20057;-71
2021/06/09 02:03:12;;;;;;;5.37;5.10;;;;;;;13.62;84.04;101714.00;5358403;26;20734;-72
2021/06/09 02:05:37;;;;;;;5.00;4.80;;;;;;;13.93;83.99;101793.37;5339549;26;20704;-71
2021/06/09 02:08:05;;;;;;;5.05;4.85;;;;;;;13.75;85.48;101750.28;5340165;26;20495;-72
2021/06/09 02:10:31;;;;;;;5.03;4.62;;;;;;;13.55;85.51;101723.97;5337659;26;20122;-72
2021/06/09 02:13:02;;;;;;;5.07;4.87;;;;;;;13.99;85.16;101775.53;5336164;26;20818;-72
2021/06/09 02:15:27;;;;;;;4.93;4.70;;;;;;;13.98;85.06;101781.75;5316865;26;20039;-72
2021/06/09 02:18:07;;;;;;;4.90;4.70;;;;;;;13.97;85.02;101770.31;5316820;26;20213;-72
2021/06/09 02:20:33;;;;;;;5.00;4.75;;;;;;;13.99;85.52;101775.53;5320298;26;20570;-71
2021/06/09 02:22:58;;;;;;;5.93;5.53;;;;;;;12.90;84.73;101584.72;5317844;26;20231;-71
2021/06/09 02:25:23;;;;;;;5.05;4.85;;;;;;;13.95;85.18;101765.13;5315837;26;20915;-71
2021/06/09 02:27:49;;;;;;;4.70;4.50;;;;;;;13.71;85.17;101717.06;5318064;26;20054;-72
2021/06/09 02:30:16;;;;;;;4.75;4.55;;;;;;;13.96;85.10;101766.81;5297839;26;20043;-72
2021/06/09 02:32:42;;;;;;;5.47;5.07;;;;;;;13.93;84.79;101763.47;5317103;26;20039;-72
2021/06/09 02:35:18;;;;;;;6.25;5.95;;;;;;;13.95;85.25;101767.78;5315336;26;20058;-72
2021/06/09 02:37:45;;;;;;;5.00;4.80;;;;;;;13.77;84.81;101737.88;5318049;26;20162;-73
2021/06/09 02:40:11;;;;;;;4.87;4.68;;;;;;;13.95;85.29;101764.25;5317945;26;20312;-73
2021/06/09 02:42:36;;;;;;;5.00;4.80;;;;;;;13.91;84.75;101762.69;5318303;26;20741;-73
2021/06/09 02:45:06;;;;;;;5.90;5.60;;;;;;;13.87;85.38;101775.22;5316226;26;20040;-72
2021/06/09 02:47:32;;;;;;;4.90;4.65;;;;;;;13.68;85.17;101746.22;5317720;26;20606;-73
2021/06/09 02:50:00;;;;;;;4.80;4.60;;;;;;;13.81;85.44;101772.87;5317921;26;20049;-72
2021/06/09 02:52:31;;;;;;;5.37;5.07;;;;;;;13.40;85.60;101714.19;5298207;26;20039;-74
2021/06/09 02:55:02;;;;;;;5.05;4.75;;;;;;;13.69;85.22;101779.59;5318810;26;20043;-72
2021/06/09 02:57:58;;;;;;;5.03;4.82;;;;;;;13.53;85.82;101758.38;5317541;26;20039;-72
2021/06/09 03:00:28;;;;;;;4.78;4.57;;;;;;;13.30;85.59;101726.94;5320381;26;20043;-72
2021/06/09 03:03:38;;;;;;;5.07;4.80;;;;;;;13.59;85.86;101780.97;5316558;26;20128;-72
2021/06/09 03:06:07;;;;;;;5.45;5.25;;;;;;;13.55;85.82;101782.00;5332488;26;20035;-72
2021/06/09 03:09:05;;;;;;;5.25;4.85;;;;;;;13.50;85.88;101778.75;5318694;26;20442;-72
2021/06/09 03:12:09;;;;;;;5.37;5.10;;;;;;;13.48;85.83;101776.19;5316592;26;20039;-72
2021/06/09 03:17:30;;;;;;;4.90;4.62;;;;;;;13.50;85.81;101778.75;5353768;26;20049;-72
2021/06/09 03:20:04;;;;;;;5.22;4.93;;;;;;;13.51;85.57;101769.91;5334816;26;20130;-73
2021/06/09 03:22:43;;;;;;;5.20;4.90;;;;;;;13.52;85.17;101777.75;5353053;26;20070;-72
2021/06/09 03:25:17;;;;;;;4.80;4.60;;;;;;;13.52;85.62;101775.09;5337062;26;20137;-73
2021/06/09 03:28:09;;;;;;;4.60;4.40;;;;;;;13.53;85.81;101773.31;5334547;26;20689;-73
2021/06/09 03:30:34;;;;;;;4.65;4.45;;;;;;;12.52;85.28;101602.31;5331886;26;20943;-73
2021/06/09 03:33:04;;;;;;;4.70;4.50;;;;;;;13.57;85.44;101767.00;5334317;26;20040;-72
2021/06/09 03:35:38;;;;;;;5.32;5.00;;;;;;;13.55;85.49;101764.44;5335204;26;20060;-72
2021/06/09 03:38:06;;;;;;;5.25;5.05;;;;;;;13.54;85.10;101757.44;5333147;26;20154;-71
2021/06/09 03:40:41;;;;;;;4.95;4.75;;;;;;;12.56;84.81;101588.91;5336087;26;20888;-71
2021/06/09 03:43:08;;;;;;;5.57;5.32;;;;;;;13.59;85.46;101762.50;5335745;26;20182;-72
2021/06/09 03:45:39;;;;;;;4.65;4.45;;;;;;;13.63;85.45;101769.34;5335649;26;20134;-72
2021/06/09 03:48:05;;;;;;;4.80;4.60;;;;;;;12.84;85.77;101629.78;5336863;26;20284;-72
2021/06/09 03:50:33;;;;;;;4.68;4.47;;;;;;;13.74;85.42;101776.72;5325493;26;20524;-72
2021/06/09 03:53:02;;;;;;;4.97;4.78;;;;;;;13.74;84.95;101771.44;5338361;26;20050;-72
2021/06/09 03:55:28;;;;;;;4.80;4.60;;;;;;;13.70;84.73;101761.97;5328610;26;20118;-72
2021/06/09 03:57:53;;;;;;;4.40;4.20;;;;;;;13.70;84.49;101760.19;5318134;26;20433;-72
2021/06/09 04:00:21;;;;;;;6.15;5.72;;;;;;;13.86;84.30;101776.13;5335924;26;20047;-72
2021/06/09 04:02:46;;;;;;;4.62;4.43;;;;;;;13.90;84.21;101768.91;5336151;26;20039;-72
2021/06/09 04:05:12;;;;;;;5.25;5.00;;;;;;;14.04;84.21;101770.88;5335916;26;20046;-72
2021/06/09 04:07:39;;;;;;;4.70;4.50;;;;;;;14.12;84.00;101761.63;5335653;26;20040;-72
2021/06/09 04:10:05;;;;;;;5.03;4.82;;;;;;;14.44;83.75;101767.09;5336829;26;20058;-72
2021/06/09 04:12:34;;;;;;;4.90;4.70;;;;;;;14.83;82.75;101759.81;5335579;26;20157;-72
2021/06/09 04:14:59;;;;;;;4.80;4.60;;;;;;;15.39;80.76;101763.81;5341614;26;20172;-73
2021/06/09 04:17:29;;;;;;;5.15;4.85;;;;;;;15.76;78.96;101761.81;5339482;26;20545;-72
2021/06/09 04:19:56;;;;;;;7.25;5.12;;;;;;;16.31;77.59;101766.50;5339686;26;20691;-72
2021/06/09 04:22:22;;;;;;;5.53;5.25;;;;;;;16.64;76.26;101768.09;5340136;26;20061;-72
2021/06/09 04:24:47;;;;;;;5.50;5.20;;;;;;;16.92;75.38;101753.19;5339998;26;20046;-72
2021/06/09 04:27:43;;;;;;;6.25;5.90;;;;;;;16.14;73.11;101584.78;5341403;26;20048;-72
2021/06/09 04:30:09;;;;;;;5.78;5.40;;;;;;;16.53;72.32;101607.09;5342024;26;20053;-72
2021/06/09 04:33:00;;;;;;;6.28;5.87;;;;;;;17.82;71.49;101751.84;5338682;26;20035;-72
2021/06/09 04:35:33;;;;;;;5.45;5.15;;;;;;;18.23;69.68;101766.84;5340624;26;20163;-72
2021/06/09 04:37:58;;;;;;;;;;;;;;;18.22;68.59;101758.97;5357858;26;20120;-71
2021/06/09 04:40:25;;;;;;;5.93;5.53;;;;;;;18.29;68.67;101763.78;5340162;26;19954;-71
2021/06/09 04:42:52;;;;;;;5.40;5.12;;;;;;;18.50;68.41;101765.91;5340482;26;20062;-72
2021/06/09 04:45:21;;;;;;;6.80;6.40;;;;;;;18.48;66.37;101749.22;5328458;26;20048;-71
2021/06/09 04:47:46;;;;;;;6.28;5.87;;;;;;;17.68;70.08;101767.81;5320971;26;20042;-72
2021/06/09 04:50:15;;;;;;;7.07;6.57;;;;;;;17.38;71.59;101774.16;5329690;26;20049;-71
2021/06/09 04:52:40;;;;;;;7.05;6.53;;;;;;;17.35;71.14;101779.66;5322072;26;20031;-72
2021/06/09 04:55:07;;;;;;;6.70;6.30;;;;;;;18.30;69.06;101761.97;5338007;26;20047;-72
2021/06/09 04:57:33;;;;;;;7.03;6.53;;;;;;;19.10;65.88;101769.75;5340155;26;20148;-72
2021/06/09 04:59:58;;;;;;;6.12;5.82;;;;;;;19.36;63.99;101767.03;5338237;26;20043;-72
2021/06/09 05:02:24;;;;;;;7.12;6.62;;;;;;;19.84;63.74;101767.94;5338937;26;20057;-72
2021/06/09 05:04:55;;;;;;;6.47;6.07;;;;;;;20.10;62.25;101762.47;5340088;26;20054;-73
2021/06/09 05:07:23;;;;;;;7.07;6.57;;;;;;;20.42;61.85;101772.50;5339672;26;20165;-73
2021/06/09 05:09:51;;;;;;;6.55;6.10;;;;;;;20.58;60.66;101762.34;5337832;26;20054;-72
2021/06/09 05:14:53;;;;;;;6.87;6.35;;;;;;;20.79;60.19;101766.97;5332064;26;20043;-72
2021/06/09 05:17:20;;;;;;;6.45;5.95;;;;;;;20.75;59.68;101763.72;5300139;26;20481;-73
2021/06/09 05:19:48;;;;;;;7.85;7.22;;;;;;;20.91;59.06;101763.38;5299848;26;20065;-72
2021/06/09 05:22:30;;;;;;;7.32;6.80;;;;;;;21.04;58.82;101758.75;5297152;26;20062;-74
2021/06/09 05:24:56;;;;;;;6.72;6.32;;;;;;;21.60;58.05;101755.16;5278274;26;20112;-73
2021/06/09 05:27:24;;;;;;;7.57;7.00;;;;;;;21.66;56.81;101753.81;5295032;26;20753;-72
2021/06/09 05:29:52;;;;;;;9.23;8.43;;;;;;;22.08;55.98;101748.53;5294345;26;20043;-72
2021/06/09 05:32:17;;;;;;;8.00;6.55;;;;;;;22.52;55.38;101746.59;5295580;26;20750;-73
2021/06/09 05:34:43;;;;;;;8.52;7.85;;;;;;;22.86;54.40;101746.31;5294386;26;20040;-72
2021/06/09 05:37:09;;;;;;;9.20;8.30;;;;;;;22.67;53.96;101750.62;5294584;26;20043;-72
2021/06/09 05:39:37;;;;;;;7.95;7.35;;;;;;;22.77;53.80;101756.03;5311951;26;20166;-73
2021/06/09 05:42:09;;;;;;;12.82;8.32;;;;;;;22.49;54.67;101755.75;5294240;26;20062;-72
2021/06/09 05:44:34;;;;;;;9.80;8.15;;;;;;;22.97;53.49;101748.03;5312660;26;20050;-72
2021/06/09 05:47:01;;;;;;;8.45;7.75;;;;;;;23.02;52.87;101754.72;5294588;26;20044;-72
2021/06/09 05:49:29;;;;;;;8.38;7.68;;;;;;;22.41;54.45;101755.56;5332503;26;20109;-72
2021/06/09 05:51:55;;;;;;;8.13;7.53;;;;;;;22.89;53.19;101754.94;5287055;26;20051;-71
2021/06/09 05:54:20;;;;;;;7.75;7.05;;;;;;;23.19;53.68;101752.37;5292789;26;20741;-71
2021/06/09 05:56:48;;;;;;;8.43;7.82;;;;;;;23.57;51.90;101751.59;5291404;26;20620;-69
2021/06/09 05:59:17;;;;;;;10.07;9.18;;;;;;;23.35;52.24;101760.72;5292022;26;20604;-71
2021/06/09 06:01:45;;;;;;;8.52;7.70;;;;;;;22.67;53.85;101761.31;5328197;26;20061;-69
2021/06/09 06:04:11;;;;;;;8.15;7.37;;;;;;;23.06;52.19;101675.81;5310333;26;20109;-72
2021/06/09 06:06:37;;;;;;;7.57;6.93;;;;;;;23.91;51.82;101748.53;5302714;26;20048;-72
2021/06/09 06:09:04;;;;;;;7.18;6.68;;;;;;;23.91;52.18;101751.22;5293900;26;20142;-68
2021/06/09 06:11:32;;;;;;;8.10;7.43;;;;;;;24.12;50.73;101748.41;5300637;26;20038;-68
2021/06/09 06:13:57;;;;;;;7.82;7.20;;;;;;;24.35;50.96;101750.75;5289152;27;20044;-71
2021/06/09 06:16:24;;;;;;;8.95;8.10;;;;;;;24.58;50.20;101757.50;5290165;27;20078;-71
2021/06/09 06:18:49;;;;;;;10.43;8.63;;;;;;;24.79;49.20;101745.69;5270656;27;20067;-71
2021/06/09 06:21:16;;;;;;;9.45;8.60;;;;;;;24.28;48.86;101689.62;5270885;27;20070;-70
2021/06/09 06:23:44;;;;;;;9.98;9.02;;;;;;;24.55;49.42;101760.47;5287878;27;20056;-72
2021/06/09 06:26:13;;;;;;;9.93;8.93;;;;;;;24.67;50.28;101759.28;5270431;27;20122;-69
2021/06/09 06:28:47;;;;;;;9.60;8.70;;;;;;;23.74;51.02;101717.91;5270954;27;20525;-70
2021/06/09 06:31:22;;;;;;;8.30;7.47;;;;;;;23.53;52.73;101763.59;5306174;27;20054;-70
2021/06/09 06:33:48;;;;;;;8.02;7.40;;;;;;;22.69;54.87;101726.38;5270894;27;20044;-70
2021/06/09 06:36:16;;;;;;;7.80;7.30;;;;;;;23.05;54.65;101754.47;5290085;27;20696;-70
2021/06/09 06:38:44;;;;;;;8.98;8.27;;;;;;;22.07;56.10;101696.91;5269778;27;20044;-70
2021/06/09 06:41:12;;;;;;;9.20;8.60;;;;;;;22.01;56.15;101680.50;5287187;27;20074;-70
2021/06/09 06:43:38;;;;;;;8.10;7.40;;;;;;;21.49;57.14;101609.16;5306638;27;20070;-70
2021/06/09 06:46:04;;;;;;;8.82;8.00;;;;;;;21.80;59.19;101780.22;5288060;27;20043;-71
2021/06/09 06:48:31;;;;;;;7.75;7.15;;;;;;;22.14;58.31;101769.41;5288867;27;20505;-71
2021/06/09 06:50:56;;;;;;;8.60;7.72;;;;;;;21.92;58.40;101744.47;5289650;27;20043;-69
2021/06/09 06:53:22;;;;;;;7.72;7.03;;;;;;;22.28;58.45;101762.91;5270854;27;20119;-69
2021/06/09 06:55:47;;;;;;;8.38;7.75;;;;;;;22.57;57.44;101772.94;5268944;27;20414;-71
2021/06/09 06:58:12;;;;;;;9.55;8.30;;;;;;;22.40;58.69;101769.03;5269327;27;20059;-71
2021/06/09 07:00:41;;;;;;;9.65;8.05;;;;;;;22.18;58.26;101765.47;5268626;27;20121;-70
2021/06/09 07:03:10;;;;;;;8.45;7.78;;;;;;;22.24;58.80;101764.16;5270333;27;20061;-70
2021/06/09 07:05:35;;;;;;;9.05;8.30;;;;;;;22.34;57.64;101765.06;5269188;27;20067;-70
2021/06/09 07:08:02;;;;;;;8.88;8.20;;;;;;;22.21;57.60;101719.78;5269508;27;20040;-74
2021/06/09 07:10:27;;;;;;;8.48;7.72;;;;;;;22.76;57.05;101772.22;5285907;27;20944;-72
2021/06/09 07:12:59;;;;;;;8.18;7.47;;;;;;;22.48;56.38;101745.16;5272967;26;20084;-71
2021/06/09 07:15:25;;;;;;;8.07;7.30;;;;;;;23.00;56.14;101771.88;5291392;26;20741;-74
2021/06/09 07:17:58;;;;;;;8.30;7.57;;;;;;;22.73;56.39;101772.47;5292188;26;20054;-72
2021/06/09 07:20:31;;;;;;;8.27;7.53;;;;;;;22.73;56.52;101780.47;5294033;26;20165;-72
2021/06/09 07:22:56;;;;;;;7.60;6.90;;;;;;;22.92;56.42;101774.41;5291898;26;20057;-73
2021/06/09 07:25:23;;;;;;;8.45;7.78;;;;;;;22.76;56.32;101740.09;5293288;26;20779;-70
2021/06/09 07:27:51;;;;;;;8.88;8.15;;;;;;;22.82;55.89;101769.00;5291498;26;20132;-71
2021/06/09 07:30:17;;;;;;;8.32;7.55;;;;;;;22.97;56.46;101770.31;5310674;26;20926;-71
2021/06/09 07:32:43;;;;;;;9.32;7.68;;;;;;;23.13;55.64;101777.03;5292100;26;20047;-73
2021/06/09 07:35:09;;;;;;;8.63;7.80;;;;;;;22.95;55.91;101771.44;5312446;26;20178;-70
2021/06/09 07:47:44;;;;;;;7.35;6.85;;;;;;;23.12;53.89;101764.63;4489032;31;20161;-70
2021/06/09 07:50:12;;;;;;;7.07;6.68;;;;;;;23.24;53.80;101760.88;4435059;32;20072;-75
2021/06/09 07:52:38;;;;;;;8.45;7.43;;;;;;;23.45;52.27;101750.91;4425795;32;20072;-76
2021/06/09 07:55:07;;;;;;;7.95;7.25;;;;;;;23.58;51.55;101755.16;4426623;32;20092;-77
2021/06/09 07:57:33;;;;;;;7.90;7.30;;;;;;;23.39;51.58;101710.41;4429150;32;20068;-76
2021/06/09 08:00:00;;;;;;;7.47;6.75;;;;;;;23.75;51.41;101741.03;4429151;32;20118;-77
2021/06/09 08:02:25;;;;;;;7.10;6.55;;;;;;;22.87;50.37;101649.84;4438175;31;20087;-76
2021/06/09 08:04:51;;;;;;;9.15;6.97;;;;;;;23.07;50.51;101673.97;4436092;31;20878;-77
2021/06/09 08:07:23;;;;;;;8.30;7.60;;;;;;;23.67;49.95;101765.87;4435467;32;20086;-77
2021/06/09 08:09:48;;;;;;;8.00;7.43;;;;;;;23.91;50.86;101770.00;4433868;31;20064;-74
2021/06/09 08:12:14;;;;;;;7.07;6.50;;;;;;;24.26;49.66;101771.25;4439507;32;20071;-75
2021/06/09 08:14:39;;;;;;;7.15;6.60;;;;;;;23.43;51.73;101768.94;4441171;31;20068;-75
2021/06/09 08:17:10;;;;;;;7.70;7.18;;;;;;;23.63;51.61;101767.16;4433504;32;20068;-76
2021/06/09 08:19:36;;;;;;;7.12;6.62;;;;;;;23.68;51.24;101762.19;4443089;31;20206;-73
2021/06/09 08:22:01;;;;;;;8.70;7.75;;;;;;;24.01;49.88;101767.31;4437047;32;20073;-75
2021/06/09 08:24:27;;;;;;;7.97;7.25;;;;;;;24.04;50.42;101769.72;4440700;32;20206;-75
2021/06/09 08:27:02;;;;;;;7.87;7.18;;;;;;;24.07;50.48;101730.06;4428807;32;20219;-75
2021/06/09 08:29:28;;;;;;;8.07;7.37;;;;;;;24.60;49.78;101770.78;4442616;32;20079;-75
2021/06/09 08:31:56;;;;;;;7.03;6.60;;;;;;;24.18;50.67;101763.06;4443910;32;20833;-75
2021/06/09 08:34:21;;;;;;;7.50;6.90;;;;;;;24.35;50.28;101743.53;4436432;32;20103;-74
2021/06/09 08:36:47;;;;;;;7.30;6.72;;;;;;;24.53;49.16;101758.94;4437443;32;20064;-75
2021/06/09 08:39:15;;;;;;;7.32;6.82;;;;;;;24.52;49.07;101706.25;4437738;32;21006;-74
2021/06/09 08:41:43;;;;;;;7.15;6.70;;;;;;;24.43;49.56;101710.63;4433203;32;20144;-76
2021/06/09 08:44:08;;;;;;;8.20;7.57;;;;;;;24.17;49.65;101762.22;4435922;32;20101;-75
2021/06/09 08:46:36;;;;;;;6.55;6.05;;;;;;;24.64;50.01;101764.12;4445484;32;20648;-75
2021/06/09 08:49:03;;;;;;;8.73;7.90;;;;;;;25.01;48.64;101763.25;4440324;32;20076;-74
2021/06/09 08:51:34;;;;;;;7.32;6.82;;;;;;;24.90;49.46;101767.00;4431460;32;20091;-74
2021/06/09 08:54:00;;;;;;;7.78;7.18;;;;;;;24.49;48.69;101763.72;4429641;32;20096;-74
2021/06/09 08:56:25;;;;;;;7.00;6.57;;;;;;;23.82;51.82;101747.56;4434991;32;20145;-74
2021/06/09 08:58:54;;;;;;;7.18;6.57;;;;;;;23.82;50.17;101746.72;4421993;32;20157;-74
2021/06/09 09:01:19;;;;;;;8.10;7.40;;;;;;;24.20;48.24;101761.94;4438852;32;20083;-73
2021/06/09 09:03:50;;;;;;;7.20;6.70;;;;;;;24.51;48.72;101726.03;4422864;32;20072;-74
2021/06/09 09:06:15;;;;;;;7.78;7.07;;;;;;;24.85;49.01;101778.16;4423087;32;20065;-74
2021/06/09 09:08:41;;;;;;;8.10;7.50;;;;;;;25.37;47.29;101760.69;4422216;32;20076;-74
2021/06/09 09:11:06;;;;;;;6.85;6.45;;;;;;;25.43;47.67;101760.94;4424151;32;20091;-74
2021/06/09 09:13:32;;;;;;;7.45;6.85;;;;;;;25.72;47.24;101759.03;4435476;32;20083;-74
2021/06/09 09:15:57;;;;;;;8.10;7.40;;;;;;;25.21;46.46;101761.31;4424099;32;20069;-74
2021/06/09 09:18:40;;;;;;;7.90;7.05;;;;;;;25.80;44.19;101754.59;4422759;32;20086;-74
2021/06/09 09:21:05;;;;;;;7.70;6.70;;;;;;;25.37;45.67;101756.16;4429218;32;20191;-75
2021/06/09 09:23:37;;;;;;;7.78;7.15;;;;;;;25.69;44.96;101752.13;4435723;32;20055;-74
2021/06/09 09:26:22;;;;;;;6.90;6.40;;;;;;;26.56;44.06;101752.28;4429666;32;20064;-73
2021/06/09 09:28:50;;;;;;;8.35;7.65;;;;;;;27.13;42.83;101762.53;4427705;32;20064;-75
2021/06/09 09:31:19;;;;;;;8.20;7.55;;;;;;;26.43;44.17;101753.56;4426509;32;20072;-74
2021/06/09 09:33:44;;;;;;;8.15;7.55;;;;;;;25.93;46.14;101730.00;4423347;32;20084;-74
2021/06/09 09:36:19;;;;;;;8.48;7.82;;;;;;;26.55;45.24;101756.84;4425844;32;20082;-73
2021/06/09 09:38:44;;;;;;;8.15;7.45;;;;;;;25.72;43.25;101606.63;4449974;32;20095;-73
2021/06/09 09:41:12;;;;;;;8.43;7.72;;;;;;;26.38;44.45;101728.13;4426265;32;20819;-74
2021/06/09 09:43:56;;;;;;;7.43;6.93;;;;;;;27.05;42.29;101763.34;4422615;32;20082;-75
2021/06/09 09:46:34;;;;;;;7.78;7.05;;;;;;;26.98;44.25;101763.16;4443382;32;20570;-73
2021/06/09 09:49:13;;;;;;;8.50;7.78;;;;;;;26.03;45.69;101760.34;4439567;32;20065;-73
2021/06/09 09:51:51;;;;;;;7.72;7.12;;;;;;;25.86;46.97;101762.03;4438340;32;20064;-74
2021/06/09 09:54:44;;;;;;;7.07;6.57;;;;;;;25.63;46.19;101772.37;4410870;26;20069;-74
2021/06/09 09:57:12;;;;;;;7.12;6.57;;;;;;;25.73;46.09;101768.78;4373093;32;20065;-74
2021/06/09 09:59:38;;;;;;;7.85;7.15;;;;;;;26.28;44.95;101760.56;4359486;32;20887;-74
2021/06/09 10:02:15;;;;;;;7.62;7.03;;;;;;;26.82;44.71;101765.75;4367336;32;20094;-74
2021/06/09 10:04:40;;;;;;;7.62;7.12;;;;;;;27.12;42.93;101764.38;4434885;26;20087;-74
2021/06/09 10:07:08;;;;;;;6.70;6.30;;;;;;;26.60;41.87;101692.62;4420235;32;20078;-73
2021/06/09 10:09:38;;;;;;;6.68;6.28;;;;;;;26.68;40.70;101761.81;4417000;32;20590;-73
2021/06/09 10:12:07;;;;;;;6.62;6.22;;;;;;;26.81;41.36;101766.78;4425734;32;20061;-73
2021/06/09 10:14:51;;;;;;;7.05;6.62;;;;;;;27.31;40.13;101765.16;4421817;32;20082;-73
2021/06/09 10:17:26;;;;;;;7.18;6.72;;;;;;;26.90;39.14;101714.63;4423375;32;20068;-73
2021/06/09 10:19:54;;;;;;;7.82;7.25;;;;;;;26.78;39.99;101691.69;4419397;32;20967;-73
2021/06/09 10:22:39;;;;;;;6.32;5.93;;;;;;;27.82;39.14;101755.97;4416256;32;20108;-75
2021/06/09 10:25:10;;;;;;;8.63;7.72;;;;;;;26.15;41.27;101763.62;4421500;32;20190;-73
2021/06/09 10:27:49;;;;;;;7.20;6.70;;;;;;;26.76;40.33;101761.03;4415284;32;20061;-74
2021/06/09 10:30:14;;;;;;;8.07;7.55;;;;;;;27.12;41.10;101758.97;4426650;32;20145;-75
2021/06/09 10:32:40;;;;;;;7.43;6.93;;;;;;;26.97;41.88;101766.84;4441495;32;20088;-73
2021/06/09 10:35:06;;;;;;;6.85;6.30;;;;;;;26.71;42.71;101766.06;4416475;32;20226;-73
2021/06/09 10:37:33;;;;;;;7.37;6.87;;;;;;;26.06;43.29;101761.91;4424485;32;20060;-75
2021/06/09 10:39:59;;;;;;;7.60;7.00;;;;;;;26.39;41.77;101757.59;4417824;32;20095;-73
2021/06/09 10:42:24;;;;;;;7.57;6.95;;;;;;;26.61;41.56;101761.63;4425182;32;20903;-74
2021/06/09 10:44:53;;;;;;;6.82;6.40;;;;;;;27.07;39.62;101774.81;4414627;32;20080;-74
2021/06/09 10:47:34;;;;;;;6.78;6.32;;;;;;;27.09;40.40;101747.72;4435836;32;20383;-73
2021/06/09 10:50:00;;;;;;;7.20;6.60;;;;;;;26.46;41.84;101752.41;4427383;32;20087;-74
2021/06/09 10:52:25;;;;;;;7.18;6.57;;;;;;;26.41;41.00;101680.22;4425175;32;20270;-73
2021/06/09 10:54:51;;;;;;;7.20;6.62;;;;;;;26.86;39.29;101715.94;4414943;32;20084;-73
2021/06/09 10:57:19;;;;;;;6.78;6.28;;;;;;;26.94;39.63;101721.41;4412941;32;20915;-74
2021/06/09 10:59:47;;;;;;;7.22;6.65;;;;;;;26.95;41.37;101747.31;4425819;32;20699;-73
2021/06/09 11:02:13;;;;;;;7.05;6.65;;;;;;;27.20;39.90;101701.56;4415805;32;20087;-73
2021/06/09 11:04:45;;;;;;;7.15;6.65;;;;;;;27.77;37.24;101742.13;4416621;32;20076;-74
2021/06/09 11:07:33;;;;;;;7.15;6.65;;;;;;;28.31;38.84;101724.59;4412623;32;20075;-75
2021/06/09 11:10:07;;;;;;;7.03;6.53;;;;;;;28.57;38.51;101740.59;4418120;32;20099;-74
2021/06/09 11:12:54;;;;;;;7.05;6.45;;;;;;;28.05;39.16;101721.06;4413109;32;20426;-72
2021/06/09 11:15:21;;;;;;;9.40;6.93;;;;;;;27.58;40.01;101737.06;4432714;32;20090;-71
2021/06/09 11:17:58;;;;;;;7.37;6.85;;;;;;;27.47;40.21;101732.84;4408877;32;21141;-71
2021/06/09 11:20:37;;;;;;;6.60;6.10;;;;;;;27.23;41.27;101741.69;4429158;32;20141;-71
2021/06/09 11:23:06;;;;;;;7.95;7.22;;;;;;;27.24;42.62;101741.56;4419564;32;20060;-71
2021/06/09 11:25:47;;;;;;;7.57;6.97;;;;;;;26.39;41.88;101737.91;4435137;32;20199;-70
2021/06/09 11:28:24;;;;;;;7.30;6.75;;;;;;;27.21;41.50;101728.37;4421202;32;20083;-70
2021/06/09 11:30:51;;;;;;;7.20;6.65;;;;;;;28.00;40.10;101736.09;4419789;32;20098;-71
2021/06/09 11:33:36;;;;;;;7.85;7.12;;;;;;;27.83;38.49;101736.06;4418708;32;20179;-71
2021/06/09 11:36:08;;;;;;;7.43;6.72;;;;;;;28.05;38.61;101731.03;4426456;32;20144;-70
2021/06/09 11:38:41;;;;;;;7.68;7.07;;;;;;;27.96;37.61;101734.75;4434030;32;20080;-71
2021/06/09 11:41:09;;;;;;;7.90;7.30;;;;;;;28.12;37.60;101723.09;4412641;32;20092;-72
2021/06/09 11:43:44;;;;;;;7.00;6.50;;;;;;;28.40;36.62;101721.69;4407584;32;20084;-68
2021/06/09 11:46:29;;;;;;;7.45;6.85;;;;;;;28.08;37.89;101724.44;4428408;32;20072;-69
2021/06/09 11:48:59;;;;;;;7.50;6.95;;;;;;;27.82;37.71;101699.31;4410296;32;20131;-75